sensor_id;sensor_type;location;lat;lon;timestamp;P1;durP1;ratioP1;P2;durP2;ratioP2
52730;SDS011;38624;53.242;6.974;2024-03-23T00:54:35;34.65;;;6.43;;
52730;SDS011;38624;53.242;6.974;2024-03-23T00:57:01;33.08;;;6.10;;
52730;SDS011;38624;53.242;6.974;2024-03-23T00:59:28;33.42;;;6.40;;
52730;SDS011;38624;53.242;6.974;2024-03-23T01:01:54;43.28;;;7.07;;
52730;SDS011;38624;53.242;6.974;2024-03-23T01:04:20;27.80;;;5.80;;
52730;SDS011;38624;53.242;6.974;2024-03-23T01:06:46;28.83;;;5.45;;
52730;SDS011;38624;53.242;6.974;2024-03-23T01:09:12;35.75;;;5.65;;
52730;SDS011;38624;53.242;6.974;2024-03-23T01:11:38;35.25;;;5.68;;
52730;SDS011;38624;53.242;6.974;2024-03-23T01:14:05;27.48;;;5.85;;
52730;SDS011;38624;53.242;6.974;2024-03-23T01:16:31;43.60;;;6.78;;
52730;SDS011;38624;53.242;6.974;2024-03-23T01:18:57;32.80;;;6.15;;
52730;SDS011;38624;53.242;6.974;2024-03-23T01:21:23;41.17;;;6.35;;
52730;SDS011;38624;53.242;6.974;2024-03-23T01:23:49;36.78;;;5.65;;
52730;SDS011;38624;53.242;6.974;2024-03-23T01:26:15;41.25;;;6.30;;
52730;SDS011;38624;53.242;6.974;2024-03-23T01:28:41;33.83;;;5.63;;
52730;SDS011;38624;53.242;6.974;2024-03-23T01:31:08;32.67;;;5.78;;
52730;SDS011;38624;53.242;6.974;2024-03-23T01:33:34;24.80;;;5.07;;
52730;SDS011;38624;53.242;6.974;2024-03-23T01:36:01;35.10;;;5.05;;
52730;SDS011;38624;53.242;6.974;2024-03-23T01:38:27;35.95;;;5.78;;
52730;SDS011;38624;53.242;6.974;2024-03-23T01:40:57;39.47;;;5.43;;
52730;SDS011;38624;53.242;6.974;2024-03-23T01:43:23;29.48;;;5.18;;
52730;SDS011;38624;53.242;6.974;2024-03-23T01:45:49;34.85;;;5.85;;
52730;SDS011;38624;53.242;6.974;2024-03-23T01:48:15;42.53;;;6.25;;
52730;SDS011;38624;53.242;6.974;2024-03-23T01:50:41;31.83;;;5.87;;
52730;SDS011;38624;53.242;6.974;2024-03-23T01:53:07;32.97;;;5.90;;
52730;SDS011;38624;53.242;6.974;2024-03-23T01:55:33;32.10;;;5.60;;
52730;SDS011;38624;53.242;6.974;2024-03-23T01:57:59;34.92;;;6.20;;
52730;SDS011;38624;53.242;6.974;2024-03-23T02:00:25;25.23;;;5.80;;
52730;SDS011;38624;53.242;6.974;2024-03-23T02:05:20;36.30;;;5.30;;
52730;SDS011;38624;53.242;6.974;2024-03-23T02:07:46;34.70;;;5.70;;
52730;SDS011;38624;53.242;6.974;2024-03-23T02:10:12;40.07;;;6.13;;
52730;SDS011;38624;53.242;6.974;2024-03-23T02:12:38;28.33;;;6.20;;
52730;SDS011;38624;53.242;6.974;2024-03-23T02:15:04;31.38;;;6.22;;
52730;SDS011;38624;53.242;6.974;2024-03-23T02:17:33;33.42;;;6.63;;
52730;SDS011;38624;53.242;6.974;2024-03-23T02:19:59;34.85;;;6.30;;
52730;SDS011;38624;53.242;6.974;2024-03-23T02:22:25;34.58;;;7.05;;
52730;SDS011;38624;53.242;6.974;2024-03-23T02:24:59;33.35;;;6.00;;
52730;SDS011;38624;53.242;6.974;2024-03-23T02:27:25;33.83;;;5.60;;
52730;SDS011;38624;53.242;6.974;2024-03-23T02:29:52;51.83;;;6.90;;
52730;SDS011;38624;53.242;6.974;2024-03-23T02:32:18;32.37;;;6.20;;
52730;SDS011;38624;53.242;6.974;2024-03-23T02:34:44;31.97;;;7.03;;
52730;SDS011;38624;53.242;6.974;2024-03-23T02:37:12;39.10;;;5.57;;
52730;SDS011;38624;53.242;6.974;2024-03-23T02:39:38;35.97;;;6.35;;
52730;SDS011;38624;53.242;6.974;2024-03-23T02:42:04;37.38;;;7.15;;
52730;SDS011;38624;53.242;6.974;2024-03-23T02:44:31;48.28;;;7.50;;
52730;SDS011;38624;53.242;6.974;2024-03-23T02:46:57;39.97;;;7.03;;
52730;SDS011;38624;53.242;6.974;2024-03-23T02:49:23;31.17;;;6.20;;
52730;SDS011;38624;53.242;6.974;2024-03-23T02:51:49;38.77;;;6.87;;
52730;SDS011;38624;53.242;6.974;2024-03-23T02:54:15;35.75;;;5.95;;
52730;SDS011;38624;53.242;6.974;2024-03-23T02:56:41;34.77;;;6.70;;
52730;SDS011;38624;53.242;6.974;2024-03-23T02:59:07;36.97;;;6.37;;
52730;SDS011;38624;53.242;6.974;2024-03-23T03:01:33;42.13;;;6.90;;
52730;SDS011;38624;53.242;6.974;2024-03-23T03:04:00;37.37;;;7.07;;
52730;SDS011;38624;53.242;6.974;2024-03-23T03:06:26;24.65;;;5.43;;
52730;SDS011;38624;53.242;6.974;2024-03-23T03:08:52;41.90;;;6.40;;
52730;SDS011;38624;53.242;6.974;2024-03-23T03:11:18;43.57;;;7.30;;
52730;SDS011;38624;53.242;6.974;2024-03-23T03:13:44;30.98;;;5.97;;
52730;SDS011;38624;53.242;6.974;2024-03-23T03:16:10;26.20;;;5.73;;
52730;SDS011;38624;53.242;6.974;2024-03-23T03:18:37;42.38;;;6.40;;
52730;SDS011;38624;53.242;6.974;2024-03-23T03:21:05;32.03;;;5.83;;
52730;SDS011;38624;53.242;6.974;2024-03-23T03:23:36;25.83;;;6.27;;
52730;SDS011;38624;53.242;6.974;2024-03-23T03:26:02;35.35;;;6.97;;
52730;SDS011;38624;53.242;6.974;2024-03-23T03:28:28;30.07;;;6.20;;
52730;SDS011;38624;53.242;6.974;2024-03-23T03:30:56;35.50;;;5.67;;
52730;SDS011;38624;53.242;6.974;2024-03-23T03:33:22;37.05;;;6.53;;
52730;SDS011;38624;53.242;6.974;2024-03-23T03:35:48;35.43;;;6.53;;
52730;SDS011;38624;53.242;6.974;2024-03-23T03:38:17;36.93;;;6.10;;
52730;SDS011;38624;53.242;6.974;2024-03-23T03:40:43;28.58;;;5.82;;
52730;SDS011;38624;53.242;6.974;2024-03-23T03:43:09;33.20;;;6.83;;
52730;SDS011;38624;53.242;6.974;2024-03-23T03:45:35;39.57;;;6.63;;
52730;SDS011;38624;53.242;6.974;2024-03-23T03:48:01;29.37;;;5.77;;
52730;SDS011;38624;53.242;6.974;2024-03-23T03:50:27;20.33;;;5.33;;
52730;SDS011;38624;53.242;6.974;2024-03-23T03:52:53;27.25;;;5.63;;
52730;SDS011;38624;53.242;6.974;2024-03-23T03:55:19;28.37;;;5.67;;
52730;SDS011;38624;53.242;6.974;2024-03-23T03:57:45;27.33;;;5.60;;
52730;SDS011;38624;53.242;6.974;2024-03-23T04:00:11;33.53;;;5.90;;
52730;SDS011;38624;53.242;6.974;2024-03-23T04:02:38;30.27;;;5.78;;
52730;SDS011;38624;53.242;6.974;2024-03-23T04:05:04;25.52;;;5.85;;
52730;SDS011;38624;53.242;6.974;2024-03-23T04:07:30;32.97;;;5.93;;
52730;SDS011;38624;53.242;6.974;2024-03-23T04:09:56;28.75;;;5.65;;
52730;SDS011;38624;53.242;6.974;2024-03-23T04:12:23;29.57;;;7.07;;
52730;SDS011;38624;53.242;6.974;2024-03-23T04:14:49;26.70;;;5.55;;
52730;SDS011;38624;53.242;6.974;2024-03-23T04:17:15;25.80;;;5.20;;
52730;SDS011;38624;53.242;6.974;2024-03-23T04:19:41;27.47;;;5.50;;
52730;SDS011;38624;53.242;6.974;2024-03-23T04:22:07;28.20;;;5.53;;
52730;SDS011;38624;53.242;6.974;2024-03-23T04:24:34;26.98;;;5.32;;
52730;SDS011;38624;53.242;6.974;2024-03-23T04:27:00;31.00;;;5.57;;
52730;SDS011;38624;53.242;6.974;2024-03-23T04:29:26;24.13;;;5.27;;
52730;SDS011;38624;53.242;6.974;2024-03-23T04:31:52;31.92;;;5.72;;
52730;SDS011;38624;53.242;6.974;2024-03-23T04:34:18;23.40;;;5.33;;
52730;SDS011;38624;53.242;6.974;2024-03-23T04:36:44;25.05;;;5.97;;
52730;SDS011;38624;53.242;6.974;2024-03-23T04:39:10;28.80;;;5.47;;
52730;SDS011;38624;53.242;6.974;2024-03-23T04:41:37;37.00;;;5.35;;
52730;SDS011;38624;53.242;6.974;2024-03-23T04:44:03;33.37;;;6.50;;
52730;SDS011;38624;53.242;6.974;2024-03-23T04:46:29;29.67;;;5.80;;
52730;SDS011;38624;53.242;6.974;2024-03-23T04:48:55;26.57;;;5.07;;
52730;SDS011;38624;53.242;6.974;2024-03-23T04:51:24;23.53;;;6.03;;
52730;SDS011;38624;53.242;6.974;2024-03-23T04:53:51;21.50;;;5.30;;
52730;SDS011;38624;53.242;6.974;2024-03-23T04:56:17;35.17;;;5.68;;
52730;SDS011;38624;53.242;6.974;2024-03-23T04:58:44;33.60;;;6.60;;
52730;SDS011;38624;53.242;6.974;2024-03-23T05:01:10;30.27;;;5.90;;
52730;SDS011;38624;53.242;6.974;2024-03-23T05:03:36;23.85;;;5.50;;
52730;SDS011;38624;53.242;6.974;2024-03-23T05:06:02;28.80;;;5.60;;
52730;SDS011;38624;53.242;6.974;2024-03-23T05:08:30;27.80;;;5.93;;
52730;SDS011;38624;53.242;6.974;2024-03-23T05:10:56;24.13;;;5.10;;
52730;SDS011;38624;53.242;6.974;2024-03-23T05:13:22;27.37;;;6.03;;
52730;SDS011;38624;53.242;6.974;2024-03-23T05:15:54;26.83;;;4.80;;
52730;SDS011;38624;53.242;6.974;2024-03-23T05:18:21;25.27;;;5.50;;
52730;SDS011;38624;53.242;6.974;2024-03-23T05:20:47;26.67;;;5.13;;
52730;SDS011;38624;53.242;6.974;2024-03-23T05:23:13;32.00;;;5.40;;
52730;SDS011;38624;53.242;6.974;2024-03-23T05:25:39;21.50;;;5.10;;
52730;SDS011;38624;53.242;6.974;2024-03-23T05:28:05;32.17;;;5.40;;
52730;SDS011;38624;53.242;6.974;2024-03-23T05:30:31;30.87;;;5.23;;
52730;SDS011;38624;53.242;6.974;2024-03-23T05:32:58;20.75;;;5.57;;
52730;SDS011;38624;53.242;6.974;2024-03-23T05:35:24;37.27;;;5.63;;
52730;SDS011;38624;53.242;6.974;2024-03-23T05:37:50;29.60;;;5.43;;
52730;SDS011;38624;53.242;6.974;2024-03-23T05:40:16;29.90;;;5.83;;
52730;SDS011;38624;53.242;6.974;2024-03-23T05:42:42;23.50;;;4.83;;
52730;SDS011;38624;53.242;6.974;2024-03-23T05:45:08;18.20;;;4.23;;
52730;SDS011;38624;53.242;6.974;2024-03-23T05:47:36;23.23;;;4.43;;
52730;SDS011;38624;53.242;6.974;2024-03-23T05:50:02;20.07;;;4.50;;
52730;SDS011;38624;53.242;6.974;2024-03-23T05:52:28;29.17;;;5.00;;
52730;SDS011;38624;53.242;6.974;2024-03-23T05:54:55;27.42;;;4.75;;
52730;SDS011;38624;53.242;6.974;2024-03-23T05:57:23;26.40;;;4.67;;
52730;SDS011;38624;53.242;6.974;2024-03-23T05:59:49;24.67;;;4.33;;
52730;SDS011;38624;53.242;6.974;2024-03-23T06:02:16;27.00;;;4.85;;
52730;SDS011;38624;53.242;6.974;2024-03-23T06:04:42;23.67;;;4.83;;
52730;SDS011;38624;53.242;6.974;2024-03-23T06:07:09;22.67;;;4.00;;
52730;SDS011;38624;53.242;6.974;2024-03-23T06:09:39;22.60;;;4.47;;
52730;SDS011;38624;53.242;6.974;2024-03-23T06:12:05;22.88;;;4.15;;
52730;SDS011;38624;53.242;6.974;2024-03-23T06:14:31;13.67;;;3.87;;
52730;SDS011;38624;53.242;6.974;2024-03-23T06:16:58;28.38;;;4.40;;
52730;SDS011;38624;53.242;6.974;2024-03-23T06:19:25;19.73;;;4.22;;
52730;SDS011;38624;53.242;6.974;2024-03-23T06:21:54;18.30;;;4.57;;
52730;SDS011;38624;53.242;6.974;2024-03-23T06:24:21;30.10;;;5.13;;
52730;SDS011;38624;53.242;6.974;2024-03-23T06:26:47;16.73;;;3.63;;
52730;SDS011;38624;53.242;6.974;2024-03-23T06:29:14;17.70;;;3.78;;
52730;SDS011;38624;53.242;6.974;2024-03-23T06:31:40;17.95;;;3.45;;
52730;SDS011;38624;53.242;6.974;2024-03-23T06:34:06;20.80;;;4.00;;
52730;SDS011;38624;53.242;6.974;2024-03-23T06:36:32;12.50;;;3.23;;
52730;SDS011;38624;53.242;6.974;2024-03-23T06:38:58;28.83;;;3.87;;
52730;SDS011;38624;53.242;6.974;2024-03-23T06:41:24;14.30;;;2.80;;
52730;SDS011;38624;53.242;6.974;2024-03-23T06:43:50;15.70;;;3.08;;
52730;SDS011;38624;53.242;6.974;2024-03-23T06:46:16;15.07;;;2.95;;
52730;SDS011;38624;53.242;6.974;2024-03-23T06:48:44;13.05;;;2.97;;
52730;SDS011;38624;53.242;6.974;2024-03-23T06:51:10;4.18;;;1.20;;
52730;SDS011;38624;53.242;6.974;2024-03-23T06:53:37;3.05;;;1.10;;
52730;SDS011;38624;53.242;6.974;2024-03-23T06:56:03;3.77;;;1.07;;
52730;SDS011;38624;53.242;6.974;2024-03-23T06:58:34;5.25;;;1.10;;
52730;SDS011;38624;53.242;6.974;2024-03-23T07:01:00;6.00;;;1.40;;
52730;SDS011;38624;53.242;6.974;2024-03-23T07:03:26;3.03;;;0.90;;
52730;SDS011;38624;53.242;6.974;2024-03-23T07:05:52;3.63;;;1.10;;
52730;SDS011;38624;53.242;6.974;2024-03-23T07:08:18;3.70;;;1.57;;
52730;SDS011;38624;53.242;6.974;2024-03-23T07:10:47;6.22;;;1.50;;
52730;SDS011;38624;53.242;6.974;2024-03-23T07:13:13;5.27;;;1.20;;
52730;SDS011;38624;53.242;6.974;2024-03-23T07:15:42;6.03;;;1.27;;
52730;SDS011;38624;53.242;6.974;2024-03-23T07:18:08;6.47;;;1.40;;
52730;SDS011;38624;53.242;6.974;2024-03-23T07:20:34;7.03;;;1.38;;
52730;SDS011;38624;53.242;6.974;2024-03-23T07:23:00;5.97;;;1.50;;
52730;SDS011;38624;53.242;6.974;2024-03-23T07:25:26;8.70;;;1.73;;
52730;SDS011;38624;53.242;6.974;2024-03-23T07:27:54;4.77;;;1.40;;
52730;SDS011;38624;53.242;6.974;2024-03-23T07:30:20;4.82;;;1.50;;
52730;SDS011;38624;53.242;6.974;2024-03-23T07:32:46;8.27;;;1.57;;
52730;SDS011;38624;53.242;6.974;2024-03-23T07:35:12;10.95;;;2.22;;
52730;SDS011;38624;53.242;6.974;2024-03-23T07:37:38;7.80;;;1.90;;
52730;SDS011;38624;53.242;6.974;2024-03-23T07:40:05;5.40;;;1.88;;
52730;SDS011;38624;53.242;6.974;2024-03-23T07:42:31;6.03;;;1.50;;
52730;SDS011;38624;53.242;6.974;2024-03-23T07:44:57;5.63;;;1.73;;
52730;SDS011;38624;53.242;6.974;2024-03-23T07:47:23;4.82;;;1.40;;
52730;SDS011;38624;53.242;6.974;2024-03-23T07:49:52;9.03;;;1.77;;
52730;SDS011;38624;53.242;6.974;2024-03-23T07:52:18;10.73;;;2.40;;
52730;SDS011;38624;53.242;6.974;2024-03-23T07:54:44;7.35;;;2.00;;
52730;SDS011;38624;53.242;6.974;2024-03-23T07:57:10;8.95;;;2.35;;
52730;SDS011;38624;53.242;6.974;2024-03-23T07:59:36;10.33;;;2.13;;
52730;SDS011;38624;53.242;6.974;2024-03-23T08:02:03;10.53;;;2.10;;
52730;SDS011;38624;53.242;6.974;2024-03-23T08:04:29;9.17;;;1.90;;
52730;SDS011;38624;53.242;6.974;2024-03-23T08:06:55;11.45;;;2.33;;
52730;SDS011;38624;53.242;6.974;2024-03-23T08:09:22;8.33;;;2.00;;
52730;SDS011;38624;53.242;6.974;2024-03-23T08:11:48;9.07;;;1.98;;
52730;SDS011;38624;53.242;6.974;2024-03-23T08:14:14;7.90;;;2.10;;
52730;SDS011;38624;53.242;6.974;2024-03-23T08:16:40;9.25;;;2.30;;
52730;SDS011;38624;53.242;6.974;2024-03-23T08:19:06;8.35;;;2.03;;
52730;SDS011;38624;53.242;6.974;2024-03-23T08:21:33;7.28;;;2.10;;
52730;SDS011;38624;53.242;6.974;2024-03-23T08:24:00;9.80;;;2.20;;
52730;SDS011;38624;53.242;6.974;2024-03-23T08:26:26;11.17;;;2.37;;
52730;SDS011;38624;53.242;6.974;2024-03-23T08:28:52;11.47;;;2.60;;
52730;SDS011;38624;53.242;6.974;2024-03-23T08:31:18;7.28;;;1.90;;
52730;SDS011;38624;53.242;6.974;2024-03-23T08:33:44;11.48;;;2.15;;
52730;SDS011;38624;53.242;6.974;2024-03-23T08:36:10;5.60;;;1.90;;
52730;SDS011;38624;53.242;6.974;2024-03-23T08:38:39;10.73;;;1.88;;
52730;SDS011;38624;53.242;6.974;2024-03-23T08:41:09;4.97;;;1.55;;
52730;SDS011;38624;53.242;6.974;2024-03-23T08:43:36;7.78;;;1.40;;
52730;SDS011;38624;53.242;6.974;2024-03-23T08:46:06;6.30;;;1.30;;
52730;SDS011;38624;53.242;6.974;2024-03-23T08:48:35;6.65;;;2.03;;
52730;SDS011;38624;53.242;6.974;2024-03-23T08:51:08;4.18;;;1.20;;
52730;SDS011;38624;53.242;6.974;2024-03-23T08:53:37;7.22;;;1.80;;
52730;SDS011;38624;53.242;6.974;2024-03-23T08:56:04;6.57;;;1.40;;
52730;SDS011;38624;53.242;6.974;2024-03-23T08:58:31;5.82;;;1.40;;
52730;SDS011;38624;53.242;6.974;2024-03-23T09:01:07;7.05;;;1.40;;
52730;SDS011;38624;53.242;6.974;2024-03-23T09:03:33;6.43;;;1.88;;
52730;SDS011;38624;53.242;6.974;2024-03-23T09:06:00;3.40;;;1.27;;
52730;SDS011;38624;53.242;6.974;2024-03-23T09:08:26;4.15;;;1.48;;
52730;SDS011;38624;53.242;6.974;2024-03-23T09:10:56;5.20;;;1.90;;
52730;SDS011;38624;53.242;6.974;2024-03-23T09:13:24;7.95;;;2.20;;
52730;SDS011;38624;53.242;6.974;2024-03-23T09:15:51;10.43;;;2.60;;
52730;SDS011;38624;53.242;6.974;2024-03-23T09:18:21;10.68;;;2.42;;
52730;SDS011;38624;53.242;6.974;2024-03-23T09:20:47;11.87;;;3.13;;
52730;SDS011;38624;53.242;6.974;2024-03-23T09:23:13;11.82;;;2.70;;
52730;SDS011;38624;53.242;6.974;2024-03-23T09:25:39;13.27;;;2.67;;
52730;SDS011;38624;53.242;6.974;2024-03-23T09:28:06;7.40;;;2.33;;
52730;SDS011;38624;53.242;6.974;2024-03-23T09:30:35;8.05;;;2.60;;
52730;SDS011;38624;53.242;6.974;2024-03-23T09:33:07;10.10;;;2.70;;
52730;SDS011;38624;53.242;6.974;2024-03-23T09:35:37;8.93;;;2.42;;
52730;SDS011;38624;53.242;6.974;2024-03-23T09:38:04;13.50;;;3.15;;
52730;SDS011;38624;53.242;6.974;2024-03-23T09:40:30;12.43;;;2.90;;
52730;SDS011;38624;53.242;6.974;2024-03-23T09:42:56;9.35;;;2.65;;
52730;SDS011;38624;53.242;6.974;2024-03-23T09:45:28;9.73;;;2.22;;
52730;SDS011;38624;53.242;6.974;2024-03-23T09:47:55;8.13;;;2.38;;
52730;SDS011;38624;53.242;6.974;2024-03-23T09:50:21;12.65;;;2.80;;
52730;SDS011;38624;53.242;6.974;2024-03-23T09:52:47;10.88;;;2.47;;
52730;SDS011;38624;53.242;6.974;2024-03-23T09:55:14;5.72;;;2.22;;
52730;SDS011;38624;53.242;6.974;2024-03-23T09:57:40;10.48;;;2.63;;
52730;SDS011;38624;53.242;6.974;2024-03-23T10:00:07;9.85;;;2.28;;
52730;SDS011;38624;53.242;6.974;2024-03-23T10:05:00;6.75;;;2.40;;
52730;SDS011;38624;53.242;6.974;2024-03-23T10:07:26;8.90;;;2.17;;
52730;SDS011;38624;53.242;6.974;2024-03-23T10:09:55;8.18;;;1.70;;
52730;SDS011;38624;53.242;6.974;2024-03-23T10:12:22;4.13;;;1.83;;
52730;SDS011;38624;53.242;6.974;2024-03-23T10:14:48;6.80;;;1.60;;
52730;SDS011;38624;53.242;6.974;2024-03-23T10:17:15;4.47;;;1.30;;
52730;SDS011;38624;53.242;6.974;2024-03-23T10:19:45;6.78;;;1.30;;
52730;SDS011;38624;53.242;6.974;2024-03-23T10:22:19;5.38;;;1.40;;
52730;SDS011;38624;53.242;6.974;2024-03-23T10:24:45;7.18;;;1.50;;
52730;SDS011;38624;53.242;6.974;2024-03-23T10:27:15;9.27;;;2.03;;
52730;SDS011;38624;53.242;6.974;2024-03-23T10:29:42;7.40;;;1.92;;
52730;SDS011;38624;53.242;6.974;2024-03-23T10:32:10;10.20;;;1.90;;
52730;SDS011;38624;53.242;6.974;2024-03-23T10:37:03;8.07;;;1.88;;
52730;SDS011;38624;53.242;6.974;2024-03-23T10:39:33;7.90;;;1.75;;
52730;SDS011;38624;53.242;6.974;2024-03-23T10:42:03;7.70;;;1.65;;
52730;SDS011;38624;53.242;6.974;2024-03-23T10:44:29;6.68;;;1.67;;
52730;SDS011;38624;53.242;6.974;2024-03-23T10:49:29;6.95;;;1.60;;
52730;SDS011;38624;53.242;6.974;2024-03-23T10:52:04;5.70;;;1.42;;
52730;SDS011;38624;53.242;6.974;2024-03-23T10:54:31;8.20;;;1.65;;
52730;SDS011;38624;53.242;6.974;2024-03-23T10:57:17;6.15;;;1.98;;
52730;SDS011;38624;53.242;6.974;2024-03-23T10:59:43;10.18;;;1.90;;
52730;SDS011;38624;53.242;6.974;2024-03-23T11:02:18;5.07;;;1.88;;
52730;SDS011;38624;53.242;6.974;2024-03-23T11:04:44;9.18;;;1.90;;
52730;SDS011;38624;53.242;6.974;2024-03-23T11:07:31;9.95;;;2.08;;
52730;SDS011;38624;53.242;6.974;2024-03-23T11:09:59;10.70;;;2.00;;
52730;SDS011;38624;53.242;6.974;2024-03-23T11:14:55;7.18;;;1.92;;
52730;SDS011;38624;53.242;6.974;2024-03-23T11:17:23;5.80;;;1.70;;
52730;SDS011;38624;53.242;6.974;2024-03-23T11:19:59;10.07;;;2.08;;
52730;SDS011;38624;53.242;6.974;2024-03-23T11:22:37;8.88;;;2.10;;
52730;SDS011;38624;53.242;6.974;2024-03-23T11:25:12;8.85;;;2.13;;
52730;SDS011;38624;53.242;6.974;2024-03-23T11:27:38;9.93;;;2.33;;
52730;SDS011;38624;53.242;6.974;2024-03-23T11:32:47;5.60;;;1.55;;
52730;SDS011;38624;53.242;6.974;2024-03-23T11:38:14;4.18;;;1.63;;
52730;SDS011;38624;53.242;6.974;2024-03-23T11:40:43;8.02;;;1.77;;
52730;SDS011;38624;53.242;6.974;2024-03-23T11:43:12;8.20;;;1.83;;
52730;SDS011;38624;53.242;6.974;2024-03-23T11:45:39;8.63;;;1.67;;
52730;SDS011;38624;53.242;6.974;2024-03-23T11:48:06;9.15;;;2.22;;
52730;SDS011;38624;53.242;6.974;2024-03-23T11:50:33;8.20;;;2.08;;
52730;SDS011;38624;53.242;6.974;2024-03-23T11:53:12;7.95;;;2.00;;
52730;SDS011;38624;53.242;6.974;2024-03-23T11:55:42;6.13;;;1.80;;
52730;SDS011;38624;53.242;6.974;2024-03-23T11:58:09;7.82;;;1.88;;
52730;SDS011;38624;53.242;6.974;2024-03-23T12:03:02;8.43;;;2.10;;
52730;SDS011;38624;53.242;6.974;2024-03-23T12:05:28;8.63;;;2.00;;
52730;SDS011;38624;53.242;6.974;2024-03-23T12:07:55;8.27;;;2.10;;
52730;SDS011;38624;53.242;6.974;2024-03-23T12:10:21;6.82;;;2.42;;
52730;SDS011;38624;53.242;6.974;2024-03-23T12:13:00;9.18;;;1.90;;
52730;SDS011;38624;53.242;6.974;2024-03-23T12:15:26;12.32;;;2.50;;
52730;SDS011;38624;53.242;6.974;2024-03-23T12:18:05;7.70;;;1.88;;
52730;SDS011;38624;53.242;6.974;2024-03-23T12:20:31;9.43;;;2.35;;
52730;SDS011;38624;53.242;6.974;2024-03-23T12:23:04;9.05;;;1.92;;
52730;SDS011;38624;53.242;6.974;2024-03-23T12:25:31;6.88;;;1.98;;
52730;SDS011;38624;53.242;6.974;2024-03-23T12:28:00;11.93;;;2.58;;
52730;SDS011;38624;53.242;6.974;2024-03-23T12:30:26;10.00;;;2.10;;
52730;SDS011;38624;53.242;6.974;2024-03-23T12:32:52;10.20;;;1.98;;
52730;SDS011;38624;53.242;6.974;2024-03-23T12:35:19;5.85;;;1.70;;
52730;SDS011;38624;53.242;6.974;2024-03-23T12:37:45;4.73;;;1.50;;
52730;SDS011;38624;53.242;6.974;2024-03-23T12:40:11;6.60;;;1.70;;
52730;SDS011;38624;53.242;6.974;2024-03-23T12:42:37;8.38;;;2.20;;
52730;SDS011;38624;53.242;6.974;2024-03-23T12:45:03;7.85;;;2.17;;
52730;SDS011;38624;53.242;6.974;2024-03-23T12:47:30;5.43;;;1.92;;
52730;SDS011;38624;53.242;6.974;2024-03-23T12:49:59;5.57;;;1.55;;
52730;SDS011;38624;53.242;6.974;2024-03-23T12:52:25;3.97;;;1.05;;
52730;SDS011;38624;53.242;6.974;2024-03-23T12:54:56;3.47;;;1.27;;
52730;SDS011;38624;53.242;6.974;2024-03-23T12:57:25;6.82;;;1.60;;
52730;SDS011;38624;53.242;6.974;2024-03-23T12:59:52;5.65;;;1.48;;
52730;SDS011;38624;53.242;6.974;2024-03-23T13:02:19;8.05;;;1.67;;
52730;SDS011;38624;53.242;6.974;2024-03-23T13:04:52;6.35;;;1.60;;
52730;SDS011;38624;53.242;6.974;2024-03-23T13:07:19;9.82;;;1.65;;
52730;SDS011;38624;53.242;6.974;2024-03-23T13:09:45;9.02;;;1.60;;
52730;SDS011;38624;53.242;6.974;2024-03-23T13:12:11;9.52;;;2.05;;
52730;SDS011;38624;53.242;6.974;2024-03-23T13:14:38;3.70;;;1.67;;
52730;SDS011;38624;53.242;6.974;2024-03-23T13:17:04;9.93;;;1.80;;
52730;SDS011;38624;53.242;6.974;2024-03-23T13:19:30;6.95;;;1.50;;
52730;SDS011;38624;53.242;6.974;2024-03-23T13:21:57;5.47;;;1.00;;
52730;SDS011;38624;53.242;6.974;2024-03-23T13:24:24;3.20;;;1.08;;
52730;SDS011;38624;53.242;6.974;2024-03-23T13:26:50;7.03;;;1.30;;
52730;SDS011;38624;53.242;6.974;2024-03-23T13:29:17;7.10;;;1.48;;
52730;SDS011;38624;53.242;6.974;2024-03-23T13:31:43;5.82;;;1.40;;
52730;SDS011;38624;53.242;6.974;2024-03-23T13:34:09;7.45;;;1.58;;
52730;SDS011;38624;53.242;6.974;2024-03-23T13:36:36;2.83;;;1.00;;
52730;SDS011;38624;53.242;6.974;2024-03-23T13:39:02;8.73;;;1.88;;
52730;SDS011;38624;53.242;6.974;2024-03-23T13:41:45;12.07;;;2.20;;
52730;SDS011;38624;53.242;6.974;2024-03-23T13:44:12;8.45;;;2.17;;
52730;SDS011;38624;53.242;6.974;2024-03-23T13:46:39;7.88;;;1.95;;
52730;SDS011;38624;53.242;6.974;2024-03-23T13:49:07;12.90;;;1.98;;
52730;SDS011;38624;53.242;6.974;2024-03-23T13:51:33;7.55;;;1.83;;
52730;SDS011;38624;53.242;6.974;2024-03-23T13:53:59;7.63;;;2.35;;
52730;SDS011;38624;53.242;6.974;2024-03-23T13:56:26;5.40;;;2.00;;
52730;SDS011;38624;53.242;6.974;2024-03-23T13:58:53;8.10;;;1.70;;
52730;SDS011;38624;53.242;6.974;2024-03-23T14:01:20;8.77;;;2.03;;
52730;SDS011;38624;53.242;6.974;2024-03-23T14:03:49;6.90;;;1.70;;
52730;SDS011;38624;53.242;6.974;2024-03-23T14:06:15;7.00;;;1.95;;
52730;SDS011;38624;53.242;6.974;2024-03-23T14:08:41;7.17;;;1.50;;
52730;SDS011;38624;53.242;6.974;2024-03-23T14:11:08;5.82;;;1.38;;
52730;SDS011;38624;53.242;6.974;2024-03-23T14:13:35;5.75;;;1.45;;
52730;SDS011;38624;53.242;6.974;2024-03-23T14:16:01;7.73;;;1.83;;
52730;SDS011;38624;53.242;6.974;2024-03-23T14:18:27;6.57;;;1.40;;
52730;SDS011;38624;53.242;6.974;2024-03-23T14:21:00;6.00;;;1.73;;
52730;SDS011;38624;53.242;6.974;2024-03-23T14:23:26;7.70;;;1.83;;
52730;SDS011;38624;53.242;6.974;2024-03-23T14:25:54;7.82;;;1.95;;
52730;SDS011;38624;53.242;6.974;2024-03-23T14:28:21;3.70;;;1.17;;
52730;SDS011;38624;53.242;6.974;2024-03-23T14:30:55;3.88;;;1.33;;
52730;SDS011;38624;53.242;6.974;2024-03-23T14:33:21;4.20;;;1.20;;
52730;SDS011;38624;53.242;6.974;2024-03-23T14:35:54;3.80;;;1.20;;
52730;SDS011;38624;53.242;6.974;2024-03-23T14:38:23;8.77;;;1.63;;
52730;SDS011;38624;53.242;6.974;2024-03-23T14:40:49;5.80;;;1.55;;
52730;SDS011;38624;53.242;6.974;2024-03-23T14:43:18;9.88;;;1.75;;
52730;SDS011;38624;53.242;6.974;2024-03-23T14:48:11;4.40;;;1.13;;
52730;SDS011;38624;53.242;6.974;2024-03-23T14:50:37;4.37;;;1.20;;
52730;SDS011;38624;53.242;6.974;2024-03-23T14:53:03;4.37;;;1.17;;
52730;SDS011;38624;53.242;6.974;2024-03-23T14:55:30;7.30;;;1.23;;
52730;SDS011;38624;53.242;6.974;2024-03-23T14:57:56;7.40;;;1.90;;
52730;SDS011;38624;53.242;6.974;2024-03-23T15:00:22;7.65;;;1.45;;
52730;SDS011;38624;53.242;6.974;2024-03-23T15:02:48;6.43;;;2.22;;
52730;SDS011;38624;53.242;6.974;2024-03-23T15:05:14;7.43;;;2.03;;
52730;SDS011;38624;53.242;6.974;2024-03-23T15:07:40;11.60;;;2.22;;
52730;SDS011;38624;53.242;6.974;2024-03-23T15:10:06;11.00;;;2.43;;
52730;SDS011;38624;53.242;6.974;2024-03-23T15:12:33;16.08;;;2.30;;
52730;SDS011;38624;53.242;6.974;2024-03-23T15:14:59;11.07;;;2.07;;
52730;SDS011;38624;53.242;6.974;2024-03-23T15:17:25;7.32;;;1.83;;
52730;SDS011;38624;53.242;6.974;2024-03-23T15:19:52;12.50;;;2.83;;
52730;SDS011;38624;53.242;6.974;2024-03-23T15:22:20;8.13;;;1.95;;
52730;SDS011;38624;53.242;6.974;2024-03-23T15:24:47;7.55;;;1.80;;
52730;SDS011;38624;53.242;6.974;2024-03-23T15:27:13;14.87;;;1.90;;
52730;SDS011;38624;53.242;6.974;2024-03-23T15:29:39;8.13;;;1.90;;
52730;SDS011;38624;53.242;6.974;2024-03-23T15:32:10;13.68;;;2.22;;
52730;SDS011;38624;53.242;6.974;2024-03-23T15:34:36;6.10;;;1.60;;
52730;SDS011;38624;53.242;6.974;2024-03-23T15:37:02;9.75;;;1.90;;
52730;SDS011;38624;53.242;6.974;2024-03-23T15:41:55;10.00;;;1.70;;
52730;SDS011;38624;53.242;6.974;2024-03-23T15:44:21;6.78;;;1.55;;
52730;SDS011;38624;53.242;6.974;2024-03-23T15:46:47;6.15;;;1.42;;
52730;SDS011;38624;53.242;6.974;2024-03-23T15:49:13;7.20;;;1.55;;
52730;SDS011;38624;53.242;6.974;2024-03-23T15:51:39;8.25;;;1.77;;
52730;SDS011;38624;53.242;6.974;2024-03-23T15:54:09;8.60;;;1.75;;
52730;SDS011;38624;53.242;6.974;2024-03-23T15:56:35;7.90;;;1.67;;
52730;SDS011;38624;53.242;6.974;2024-03-23T15:59:01;9.00;;;1.50;;